createdAt,value
2018-06-27T00:00:11.393Z,13.80
2018-06-27T00:02:40.835Z,9.08
2018-06-27T00:05:09.440Z,10.20
2018-06-27T00:07:37.925Z,11.78
2018-06-27T00:10:06.417Z,12.98
2018-06-27T00:12:36.110Z,13.83
2018-06-27T00:15:04.801Z,10.38
2018-06-27T00:17:33.431Z,10.30
2018-06-27T00:20:02.012Z,12.73
2018-06-27T00:22:30.580Z,7.55
2018-06-27T00:24:59.253Z,8.53
2018-06-27T00:27:27.996Z,14.07
2018-06-27T00:29:56.734Z,10.00
2018-06-27T00:32:25.192Z,18.40
2018-06-27T00:34:53.677Z,8.30
2018-06-27T00:37:22.411Z,8.88
2018-06-27T00:39:51.097Z,13.13
2018-06-27T00:42:19.676Z,10.08
2018-06-27T00:44:48.240Z,10.43
2018-06-27T00:47:16.844Z,8.88
2018-06-27T00:49:45.525Z,10.63
2018-06-27T00:52:14.227Z,12.18
2018-06-27T00:54:42.835Z,10.90
2018-06-27T00:57:11.402Z,9.58
2018-06-27T00:59:40.065Z,8.95
2018-06-27T01:02:08.648Z,11.73
2018-06-27T01:04:37.233Z,8.65
2018-06-27T01:07:05.661Z,8.98
2018-06-27T01:09:34.377Z,9.75
2018-06-27T01:12:08.425Z,10.38
2018-06-27T01:14:40.826Z,8.88
2018-06-27T01:17:13.507Z,8.08
2018-06-27T01:19:47.085Z,14.13
2018-06-27T01:22:19.873Z,7.92
2018-06-27T01:24:52.648Z,8.85
2018-06-27T01:27:25.278Z,10.30
2018-06-27T01:30:00.302Z,11.43
2018-06-27T01:32:33.377Z,8.90
2018-06-27T01:35:06.117Z,17.70
2018-06-27T01:37:41.853Z,9.40
2018-06-27T01:40:14.273Z,15.00
2018-06-27T01:42:53.643Z,9.65
2018-06-27T01:45:25.904Z,8.78
2018-06-27T01:47:57.764Z,10.23
2018-06-27T01:50:30.660Z,11.70
2018-06-27T01:53:03.225Z,9.63
2018-06-27T01:55:36.474Z,8.95
2018-06-27T01:58:08.849Z,12.55
2018-06-27T02:00:42.719Z,10.35
2018-06-27T02:03:15.791Z,10.25
2018-06-27T02:05:47.897Z,10.50
2018-06-27T02:08:23.404Z,9.73
2018-06-27T02:10:55.407Z,9.20
2018-06-27T02:13:31.811Z,10.32
2018-06-27T02:16:03.706Z,18.98
2018-06-27T02:18:37.335Z,8.93
2018-06-27T02:21:11.059Z,10.85
2018-06-27T02:23:43.737Z,13.78
2018-06-27T02:26:17.626Z,26.90
2018-06-27T02:29:01.272Z,8.55
2018-06-27T02:31:33.977Z,9.65
2018-06-27T02:34:07.777Z,14.13
2018-06-27T02:36:40.338Z,11.60
2018-06-27T02:39:15.245Z,18.73
2018-06-27T02:41:47.722Z,8.55
2018-06-27T02:44:19.571Z,10.68
2018-06-27T02:46:52.042Z,14.07
2018-06-27T02:49:26.301Z,14.98
2018-06-27T02:51:58.012Z,11.75
2018-06-27T02:54:34.012Z,12.15
2018-06-27T02:57:06.660Z,14.15
2018-06-27T02:59:38.416Z,10.00
2018-06-27T03:02:09.950Z,18.15
2018-06-27T03:04:43.357Z,11.10
2018-06-27T03:07:15.792Z,15.98
2018-06-27T03:09:48.331Z,16.65
2018-06-27T03:12:20.875Z,16.27
2018-06-27T03:14:53.557Z,14.03
2018-06-27T03:17:26.392Z,10.80
2018-06-27T03:20:00.296Z,9.73
2018-06-27T03:22:33.798Z,14.50
2018-06-27T03:25:06.609Z,11.08
2018-06-27T03:27:39.626Z,12.82
2018-06-27T03:30:11.356Z,10.93
2018-06-27T03:32:43.210Z,12.37
2018-06-27T03:35:15.573Z,16.15
2018-06-27T03:37:47.107Z,12.05
2018-06-27T03:40:21.094Z,14.60
2018-06-27T03:42:54.701Z,14.00
2018-06-27T03:45:26.372Z,14.25
2018-06-27T03:48:01.900Z,18.50
2018-06-27T03:50:33.674Z,16.82
2018-06-27T03:53:07.243Z,12.73
2018-06-27T03:55:39.579Z,15.95
2018-06-27T03:58:11.314Z,13.00
2018-06-27T04:00:42.634Z,20.68
2018-06-27T04:03:14.251Z,14.87
2018-06-27T04:05:44.919Z,13.58
2018-06-27T04:08:14.948Z,9.73
2018-06-27T04:10:45.376Z,10.82
2018-06-27T04:13:16.867Z,11.05
2018-06-27T04:15:46.376Z,13.22
2018-06-27T04:18:16.641Z,13.00
2018-06-27T04:20:47.108Z,15.95
2018-06-27T04:23:18.133Z,10.65
2018-06-27T04:25:50.627Z,12.30
2018-06-27T04:28:22.412Z,15.98
2018-06-27T04:30:53.973Z,24.85
2018-06-27T04:33:26.587Z,13.08
2018-06-27T04:35:58.147Z,17.07
2018-06-27T04:38:30.236Z,19.45
2018-06-27T04:41:02.675Z,10.58
2018-06-27T04:43:34.153Z,13.53
2018-06-27T04:46:05.704Z,12.47
2018-06-27T04:48:37.286Z,17.02
2018-06-27T04:51:08.442Z,11.70
2018-06-27T04:53:40.179Z,17.02
2018-06-27T04:56:12.215Z,11.70
2018-06-27T04:58:43.240Z,13.45
2018-06-27T05:01:15.003Z,18.23
2018-06-27T05:03:54.519Z,13.48
2018-06-27T05:06:26.127Z,15.53
2018-06-27T05:08:57.372Z,13.53
2018-06-27T05:11:29.010Z,18.32
2018-06-27T05:14:00.590Z,13.45
2018-06-27T05:16:37.609Z,15.43
2018-06-27T05:19:09.085Z,12.63
2018-06-27T05:21:41.170Z,14.78
2018-06-27T05:24:11.469Z,16.25
2018-06-27T05:26:42.829Z,16.50
2018-06-27T05:29:15.453Z,15.93
2018-06-27T05:31:47.018Z,18.40
2018-06-27T05:34:18.188Z,19.10
2018-06-27T05:36:50.484Z,18.45
2018-06-27T05:39:22.578Z,16.37
2018-06-27T05:41:54.695Z,20.05
2018-06-27T05:44:26.292Z,20.05
2018-06-27T05:46:54.929Z,30.32
2018-06-27T05:49:23.718Z,21.87
2018-06-27T05:51:52.844Z,28.10
2018-06-27T05:54:21.635Z,23.75
2018-06-27T05:56:50.178Z,14.65
2018-06-27T05:59:18.902Z,23.60
2018-06-27T06:01:47.843Z,25.52
2018-06-27T06:04:16.696Z,27.55
2018-06-27T06:06:45.329Z,16.07
2018-06-27T06:09:15.092Z,18.50
2018-06-27T06:11:43.872Z,31.68
2018-06-27T06:14:12.745Z,16.80
2018-06-27T06:16:41.803Z,17.05
2018-06-27T06:19:11.606Z,18.62
2018-06-27T06:21:40.659Z,23.22
2018-06-27T06:24:10.083Z,16.30
2018-06-27T06:26:39.027Z,13.32
2018-06-27T06:29:08.190Z,17.25
2018-06-27T06:31:37.069Z,15.93
2018-06-27T06:34:12.799Z,17.50
2018-06-27T06:36:41.776Z,19.73
2018-06-27T06:39:10.864Z,15.25
2018-06-27T06:41:39.931Z,13.75
2018-06-27T06:44:08.858Z,19.00
2018-06-27T06:46:38.142Z,15.63
2018-06-27T06:49:06.786Z,11.10
2018-06-27T06:51:35.709Z,13.15
2018-06-27T06:54:05.693Z,19.87
2018-06-27T06:56:34.732Z,12.77
2018-06-27T06:59:03.640Z,11.53
2018-06-27T07:01:32.865Z,11.08
2018-06-27T07:04:01.699Z,13.38
2018-06-27T07:06:30.836Z,14.70
2018-06-27T07:09:00.227Z,15.23
2018-06-27T07:11:29.652Z,8.07
2018-06-27T07:13:59.119Z,14.27
2018-06-27T07:16:34.063Z,11.13
2018-06-27T07:19:04.409Z,7.70
2018-06-27T07:21:33.390Z,12.93
2018-06-27T07:24:02.525Z,14.93
2018-06-27T07:26:31.260Z,21.07
2018-06-27T07:28:59.805Z,11.40
2018-06-27T07:31:28.556Z,12.20
2018-06-27T07:33:57.924Z,10.93
2018-06-27T07:36:30.266Z,24.03
2018-06-27T07:38:59.771Z,18.73
2018-06-27T07:41:29.941Z,6.50
2018-06-27T07:43:59.299Z,14.93
2018-06-27T07:46:28.669Z,10.00
2018-06-27T07:48:57.878Z,12.50
2018-06-27T07:51:26.738Z,12.43
2018-06-27T07:53:55.630Z,10.57
2018-06-27T07:56:25.801Z,10.10
2018-06-27T07:58:59.225Z,6.43
2018-06-27T08:01:28.522Z,14.83
2018-06-27T08:03:58.405Z,8.93
2018-06-27T08:06:31.709Z,8.30
2018-06-27T08:09:00.345Z,14.30
2018-06-27T08:11:29.189Z,10.37
2018-06-27T08:13:58.674Z,7.87
2018-06-27T08:16:28.117Z,11.77
2018-06-27T08:18:56.757Z,11.70
2018-06-27T08:21:25.908Z,9.50
2018-06-27T08:23:54.575Z,14.13
2018-06-27T08:26:23.090Z,13.70
2018-06-27T08:28:51.450Z,11.47
2018-06-27T08:31:19.845Z,11.23
2018-06-27T08:33:48.289Z,7.37
2018-06-27T08:36:17.125Z,13.93
2018-06-27T08:38:45.662Z,9.83
2018-06-27T08:41:14.171Z,8.73
2018-06-27T08:43:44.028Z,10.93
2018-06-27T08:46:12.514Z,13.23
2018-06-27T08:48:41.072Z,10.63
2018-06-27T08:51:14.541Z,7.43
2018-06-27T08:53:43.162Z,15.60
2018-06-27T08:56:11.602Z,13.53
2018-06-27T08:58:40.294Z,17.53
2018-06-27T09:01:09.148Z,7.70
2018-06-27T09:03:37.942Z,12.60
2018-06-27T09:06:06.582Z,17.97
2018-06-27T09:08:35.259Z,6.10
2018-06-27T09:11:04.008Z,7.73
2018-06-27T09:13:32.850Z,11.20
2018-06-27T09:16:01.408Z,13.10
2018-06-27T09:18:29.941Z,7.37
2018-06-27T09:20:58.440Z,12.77
2018-06-27T09:23:27.029Z,10.00
2018-06-27T09:25:55.540Z,8.50
2018-06-27T09:28:24.616Z,7.77
2018-06-27T09:30:53.392Z,5.90
2018-06-27T09:33:21.961Z,6.10
2018-06-27T09:35:50.359Z,5.07
2018-06-27T09:38:18.765Z,5.03
2018-06-27T09:40:52.147Z,4.60
2018-06-27T09:43:20.550Z,4.40
2018-06-27T09:45:49.992Z,4.83
2018-06-27T09:48:18.494Z,10.37
2018-06-27T09:50:47.156Z,5.47
2018-06-27T09:53:15.785Z,5.93
2018-06-27T09:55:58.873Z,5.07
2018-06-27T09:58:29.351Z,5.53
2018-06-27T10:00:57.962Z,5.87
2018-06-27T10:03:26.619Z,4.93
2018-06-27T10:05:55.117Z,5.33
2018-06-27T10:08:23.524Z,6.30
2018-06-27T10:10:51.933Z,3.60
2018-06-27T10:13:20.419Z,4.33
2018-06-27T10:15:48.847Z,3.83
2018-06-27T10:18:17.386Z,3.93
2018-06-27T10:20:46.389Z,5.17
2018-06-27T10:23:14.937Z,3.97
2018-06-27T10:25:43.367Z,3.60
2018-06-27T10:28:11.984Z,3.57
2018-06-27T10:30:40.354Z,5.90
2018-06-27T10:33:09.634Z,6.90
2018-06-27T10:35:38.052Z,3.13
2018-06-27T10:38:06.413Z,3.17
2018-06-27T10:40:34.916Z,2.70
2018-06-27T10:43:03.338Z,6.63
2018-06-27T10:45:31.715Z,2.87
2018-06-27T10:48:02.154Z,7.93
2018-06-27T10:50:30.863Z,5.00
2018-06-27T10:52:59.269Z,2.80
2018-06-27T10:55:28.919Z,3.80
2018-06-27T10:57:57.638Z,2.40
2018-06-27T11:00:26.769Z,6.53
2018-06-27T11:02:55.156Z,3.43
2018-06-27T11:05:23.766Z,4.10
2018-06-27T11:07:52.407Z,3.87
2018-06-27T11:10:20.937Z,5.80
2018-06-27T11:12:49.345Z,6.03
2018-06-27T11:15:19.710Z,2.80
2018-06-27T11:17:48.611Z,3.07
2018-06-27T11:20:17.906Z,7.60
2018-06-27T11:22:47.170Z,2.63
2018-06-27T11:25:15.665Z,2.50
2018-06-27T11:27:44.440Z,2.33
2018-06-27T11:30:14.564Z,5.00
2018-06-27T11:32:43.084Z,8.10
2018-06-27T11:35:11.520Z,2.47
2018-06-27T11:37:40.974Z,2.90
2018-06-27T11:40:09.818Z,3.10
2018-06-27T11:42:39.516Z,3.00
2018-06-27T11:45:08.671Z,4.20
2018-06-27T11:47:37.875Z,4.30
2018-06-27T11:50:08.609Z,2.87
2018-06-27T11:52:37.362Z,3.87
2018-06-27T11:55:13.310Z,3.63
2018-06-27T11:57:43.714Z,3.13
2018-06-27T12:00:12.150Z,2.80
2018-06-27T12:02:40.668Z,6.20
2018-06-27T12:05:10.268Z,4.30
2018-06-27T12:07:38.745Z,7.13
2018-06-27T12:10:07.283Z,2.07
2018-06-27T12:12:39.167Z,3.90
2018-06-27T12:15:09.069Z,3.20
2018-06-27T12:17:38.506Z,2.60
2018-06-27T12:20:07.368Z,2.20
2018-06-27T12:22:36.702Z,3.63
2018-06-27T12:25:05.973Z,1.93
2018-06-27T12:27:35.020Z,17.23
2018-06-27T12:30:04.250Z,3.33
2018-06-27T12:32:32.933Z,3.60
2018-06-27T12:35:01.989Z,2.40
2018-06-27T12:37:31.968Z,1.90
2018-06-27T12:40:02.725Z,2.90
2018-06-27T12:42:31.357Z,2.83
2018-06-27T12:44:59.755Z,2.73
2018-06-27T12:47:35.272Z,2.03
2018-06-27T12:50:04.839Z,3.57
2018-06-27T12:52:34.191Z,2.23
2018-06-27T12:55:04.201Z,3.03
2018-06-27T12:57:33.711Z,3.20
2018-06-27T13:00:03.208Z,2.07
2018-06-27T13:02:33.700Z,8.20
2018-06-27T13:05:02.326Z,1.73
2018-06-27T13:07:32.262Z,1.50
2018-06-27T13:10:14.345Z,4.80
2018-06-27T13:13:02.410Z,5.90
2018-06-27T13:15:33.080Z,1.73
2018-06-27T13:18:01.543Z,2.73
2018-06-27T13:20:41.386Z,2.13
2018-06-27T13:23:09.838Z,3.53
2018-06-27T13:25:38.348Z,17.33
2018-06-27T13:28:10.245Z,1.87
2018-06-27T13:30:40.209Z,1.87
2018-06-27T13:33:09.104Z,1.93
2018-06-27T13:35:37.630Z,3.20
2018-06-27T13:38:06.866Z,2.70
2018-06-27T13:40:35.486Z,5.63
2018-06-27T13:43:04.053Z,2.07
2018-06-27T13:45:33.375Z,5.67
2018-06-27T13:48:02.353Z,2.50
2018-06-27T13:50:38.804Z,5.33
2018-06-27T13:53:07.641Z,2.47
2018-06-27T13:55:38.058Z,2.20
2018-06-27T13:58:12.998Z,4.50
2018-06-27T14:00:41.487Z,2.07
2018-06-27T14:03:10.428Z,14.93
2018-06-27T14:05:39.060Z,1.77
2018-06-27T14:08:07.769Z,3.70
2018-06-27T14:10:36.809Z,2.33
2018-06-27T14:13:05.644Z,7.33
2018-06-27T14:15:34.812Z,3.17
2018-06-27T14:18:03.512Z,1.87
2018-06-27T14:20:37.868Z,4.70
2018-06-27T14:23:07.089Z,4.83
2018-06-27T14:25:35.593Z,2.23
2018-06-27T14:28:05.770Z,2.13
2018-06-27T14:30:35.260Z,3.33
2018-06-27T14:33:04.334Z,3.23
2018-06-27T14:35:33.164Z,2.77
2018-06-27T14:38:01.882Z,3.57
2018-06-27T14:40:30.934Z,7.43
2018-06-27T14:42:59.693Z,2.80
2018-06-27T14:45:29.060Z,1.80
2018-06-27T14:47:58.643Z,7.20
2018-06-27T14:50:27.149Z,2.10
2018-06-27T14:52:56.138Z,5.87
2018-06-27T14:55:24.895Z,2.10
2018-06-27T14:57:53.843Z,3.93
2018-06-27T15:00:22.934Z,4.00
2018-06-27T15:02:51.400Z,5.33
2018-06-27T15:05:20.117Z,2.13
2018-06-27T15:07:49.255Z,4.70
2018-06-27T15:10:18.801Z,2.30
2018-06-27T15:12:51.390Z,4.00
2018-06-27T15:15:20.937Z,2.00
2018-06-27T15:17:49.885Z,2.20
2018-06-27T15:20:18.516Z,2.27
2018-06-27T15:22:47.526Z,2.40
2018-06-27T15:25:16.417Z,2.27
2018-06-27T15:27:44.828Z,13.93
2018-06-27T15:30:14.334Z,2.00
2018-06-27T15:32:43.749Z,2.90
2018-06-27T15:35:12.553Z,4.07
2018-06-27T15:38:11.671Z,5.00
2018-06-27T15:40:41.139Z,12.10
2018-06-27T15:43:10.379Z,1.90
2018-06-27T15:45:38.930Z,4.97
2018-06-27T15:48:07.601Z,2.50
2018-06-27T15:50:36.366Z,2.10
2018-06-27T15:53:05.219Z,3.87
2018-06-27T15:55:34.486Z,2.03
2018-06-27T15:58:04.159Z,2.13
2018-06-27T16:00:33.869Z,1.87
2018-06-27T16:03:02.870Z,5.47
2018-06-27T16:05:34.490Z,1.80
2018-06-27T16:08:05.701Z,5.30
2018-06-27T16:10:36.755Z,1.97
2018-06-27T16:13:07.130Z,2.00
2018-06-27T16:15:35.749Z,2.60
2018-06-27T16:18:04.964Z,2.50
2018-06-27T16:20:39.717Z,2.50
2018-06-27T16:23:08.339Z,3.70
2018-06-27T16:25:36.957Z,1.80
2018-06-27T16:28:06.026Z,1.77
2018-06-27T16:30:34.638Z,1.63
2018-06-27T16:33:04.558Z,1.90
2018-06-27T16:35:33.276Z,2.00
2018-06-27T16:38:02.277Z,2.00
2018-06-27T16:40:30.950Z,2.80
2018-06-27T16:42:59.503Z,2.43
2018-06-27T16:45:28.670Z,3.50
2018-06-27T16:47:57.334Z,3.07
2018-06-27T16:50:27.441Z,1.67
2018-06-27T16:52:56.293Z,4.03
2018-06-27T16:55:25.334Z,2.23
2018-06-27T16:57:55.436Z,2.00
2018-06-27T17:00:25.917Z,13.30
2018-06-27T17:02:55.120Z,3.83
2018-06-27T17:05:24.430Z,2.93
2018-06-27T17:07:52.846Z,2.90
2018-06-27T17:10:21.716Z,2.33
2018-06-27T17:12:50.444Z,6.60
2018-06-27T17:15:19.346Z,9.10
2018-06-27T17:17:48.191Z,3.30
2018-06-27T17:20:16.773Z,3.00
2018-06-27T17:22:45.995Z,9.53
2018-06-27T17:25:14.632Z,3.10
2018-06-27T17:27:43.726Z,3.33
2018-06-27T17:30:12.444Z,2.53
2018-06-27T17:32:41.171Z,3.10
2018-06-27T17:35:09.762Z,4.70
2018-06-27T17:37:38.520Z,2.43
2018-06-27T17:40:07.546Z,3.43
2018-06-27T17:42:35.903Z,4.20
2018-06-27T17:45:05.433Z,2.53
2018-06-27T17:47:34.364Z,2.50
2018-06-27T17:50:03.072Z,2.33
2018-06-27T17:52:31.716Z,4.10
2018-06-27T17:55:00.692Z,3.87
2018-06-27T17:57:29.615Z,2.80
2018-06-27T17:59:58.219Z,2.27
2018-06-27T18:02:26.942Z,2.10
2018-06-27T18:04:55.674Z,2.50
2018-06-27T18:07:24.160Z,3.00
2018-06-27T18:09:53.133Z,2.47
2018-06-27T18:12:22.313Z,12.33
2018-06-27T18:14:50.756Z,2.20
2018-06-27T18:17:19.542Z,17.87
2018-06-27T18:19:48.613Z,2.10
2018-06-27T18:22:17.132Z,2.10
2018-06-27T18:24:45.809Z,2.30
2018-06-27T18:27:14.459Z,2.23
2018-06-27T18:29:43.465Z,2.40
2018-06-27T18:32:12.098Z,2.60
2018-06-27T18:34:40.659Z,2.63
2018-06-27T18:37:09.606Z,4.87
2018-06-27T18:39:38.314Z,5.63
2018-06-27T18:42:06.820Z,2.90
2018-06-27T18:44:35.793Z,3.10
2018-06-27T18:47:04.519Z,2.47
2018-06-27T18:49:33.000Z,2.50
2018-06-27T18:52:01.675Z,3.50
2018-06-27T18:54:30.133Z,2.50
2018-06-27T18:56:58.863Z,2.50
2018-06-27T18:59:27.627Z,15.43
2018-06-27T19:01:56.185Z,5.93
2018-06-27T19:04:24.780Z,4.23
2018-06-27T19:06:53.717Z,12.53
2018-06-27T19:09:22.485Z,2.33
2018-06-27T19:11:50.878Z,6.17
2018-06-27T19:14:19.527Z,2.77
2018-06-27T19:16:48.151Z,5.07
2018-06-27T19:19:16.589Z,3.13
2018-06-27T19:21:45.533Z,2.87
2018-06-27T19:24:14.042Z,3.07
2018-06-27T19:26:42.930Z,6.70
2018-06-27T19:29:11.539Z,2.20
2018-06-27T19:31:40.525Z,3.20
2018-06-27T19:34:09.390Z,4.83
2018-06-27T19:36:37.848Z,2.27
2018-06-27T19:39:07.566Z,5.00
2018-06-27T19:41:38.794Z,3.30
2018-06-27T19:44:07.693Z,1.97
2018-06-27T19:46:36.529Z,3.63
2018-06-27T19:49:05.033Z,2.37
2018-06-27T19:51:33.742Z,3.43
2018-06-27T19:54:02.429Z,4.77
2018-06-27T19:56:31.071Z,2.23
2018-06-27T19:59:00.030Z,6.30
2018-06-27T20:01:29.388Z,2.10
2018-06-27T20:03:59.856Z,6.40
2018-06-27T20:06:28.313Z,2.27
2018-06-27T20:08:57.117Z,2.40
2018-06-27T20:11:25.594Z,2.30
2018-06-27T20:13:54.632Z,3.00
2018-06-27T20:16:23.212Z,2.10
2018-06-27T20:18:52.337Z,4.73
2018-06-27T20:21:21.250Z,4.70
2018-06-27T20:23:49.945Z,3.33
2018-06-27T20:26:18.607Z,2.50
2018-06-27T20:28:47.286Z,2.77
2018-06-27T20:31:16.054Z,2.60
2018-06-27T20:33:44.846Z,17.13
2018-06-27T20:36:13.722Z,3.07
2018-06-27T20:38:42.477Z,4.20
2018-06-27T20:41:11.315Z,2.07
2018-06-27T20:43:39.696Z,2.13
2018-06-27T20:46:08.386Z,2.37
2018-06-27T20:48:36.955Z,5.70
2018-06-27T20:51:05.825Z,2.50
2018-06-27T20:53:34.409Z,2.47
2018-06-27T20:56:02.883Z,2.60
2018-06-27T20:58:31.683Z,3.30
2018-06-27T21:01:05.329Z,2.80
2018-06-27T21:03:34.242Z,5.20
2018-06-27T21:06:03.112Z,6.97
2018-06-27T21:08:31.860Z,3.63
2018-06-27T21:11:00.676Z,2.30
2018-06-27T21:13:29.729Z,2.53
2018-06-27T21:15:58.561Z,2.50
2018-06-27T21:18:27.689Z,2.53
2018-06-27T21:20:56.375Z,3.37
2018-06-27T21:23:25.057Z,4.60
2018-06-27T21:25:54.103Z,2.53
2018-06-27T21:28:22.947Z,2.30
2018-06-27T21:30:51.592Z,2.73
2018-06-27T21:33:20.213Z,4.83
2018-06-27T21:35:48.935Z,6.37
2018-06-27T21:38:17.678Z,4.70
2018-06-27T21:40:46.217Z,2.33
2018-06-27T21:43:15.010Z,1.63
2018-06-27T21:45:43.613Z,2.10
2018-06-27T21:48:12.174Z,2.37
2018-06-27T21:50:41.146Z,4.60
2018-06-27T21:53:09.780Z,3.40
2018-06-27T21:55:38.502Z,2.70
2018-06-27T21:58:07.190Z,2.30
2018-06-27T22:00:35.761Z,1.90
2018-06-27T22:03:04.697Z,2.20
2018-06-27T22:05:33.481Z,3.03
2018-06-27T22:08:02.203Z,2.60
2018-06-27T22:10:30.840Z,2.33
2018-06-27T22:12:59.322Z,2.40
2018-06-27T22:15:28.125Z,2.30
2018-06-27T22:17:56.807Z,2.33
2018-06-27T22:20:26.040Z,2.53
2018-06-27T22:22:54.709Z,2.00
2018-06-27T22:25:23.432Z,2.70
2018-06-27T22:27:52.255Z,5.40
2018-06-27T22:30:21.010Z,2.40
2018-06-27T22:32:49.692Z,3.20
2018-06-27T22:35:18.281Z,9.40
2018-06-27T22:37:47.123Z,2.33
2018-06-27T22:40:15.842Z,2.50
2018-06-27T22:42:44.577Z,4.00
2018-06-27T22:45:13.321Z,3.30
2018-06-27T22:47:42.198Z,2.00
2018-06-27T22:50:10.839Z,2.47
2018-06-27T22:52:39.371Z,2.40
2018-06-27T22:55:08.164Z,2.40
2018-06-27T22:57:37.094Z,2.40
2018-06-27T23:00:05.939Z,2.60
2018-06-27T23:02:34.607Z,2.27
2018-06-27T23:05:03.384Z,6.00
2018-06-27T23:07:31.975Z,2.30
2018-06-27T23:10:00.792Z,3.90
2018-06-27T23:12:29.794Z,8.07
2018-06-27T23:14:58.548Z,3.53
2018-06-27T23:17:27.276Z,2.33
2018-06-27T23:19:56.087Z,2.60
2018-06-27T23:22:30.370Z,2.83
2018-06-27T23:24:59.321Z,3.83
2018-06-27T23:27:28.173Z,2.55
2018-06-27T23:29:56.864Z,4.87
2018-06-27T23:32:25.683Z,4.20
2018-06-27T23:34:54.630Z,3.10
2018-06-27T23:37:23.360Z,4.60
2018-06-27T23:39:51.957Z,8.93
2018-06-27T23:42:20.585Z,2.22
2018-06-27T23:44:49.867Z,2.90
2018-06-27T23:47:19.165Z,2.33
2018-06-27T23:49:48.389Z,3.50
2018-06-27T23:52:16.998Z,2.58
2018-06-27T23:54:45.684Z,2.80
2018-06-27T23:57:14.355Z,2.60
2018-06-27T23:59:43.066Z,2.50
